createdAt,value
2019-03-28T00:02:19.347Z,88.83
2019-03-28T00:04:50.532Z,97.50
2019-03-28T00:07:24.094Z,93.87
2019-03-28T00:09:54.606Z,94.33
2019-03-28T00:12:25.802Z,103.57
2019-03-28T00:14:57.071Z,88.83
2019-03-28T00:17:28.245Z,94.33
2019-03-28T00:19:59.463Z,87.27
2019-03-28T00:22:41.131Z,82.10
2019-03-28T00:25:13.867Z,87.63
2019-03-28T00:27:45.114Z,83.83
2019-03-28T00:30:17.538Z,77.47
2019-03-28T00:32:48.808Z,80.00
2019-03-28T00:35:20.003Z,85.70
2019-03-28T00:37:51.184Z,95.17
2019-03-28T00:40:22.366Z,87.63
2019-03-28T00:42:53.592Z,99.73
2019-03-28T00:45:24.820Z,94.83
2019-03-28T00:47:56.016Z,99.17
2019-03-28T00:50:27.263Z,102.10
2019-03-28T00:52:58.419Z,90.77
2019-03-28T00:55:29.635Z,82.47
2019-03-28T00:58:00.911Z,85.13
2019-03-28T01:00:32.117Z,89.50
2019-03-28T01:03:03.304Z,86.13
2019-03-28T01:05:34.600Z,82.47
2019-03-28T01:08:05.706Z,112.03
2019-03-28T01:10:36.923Z,90.63
2019-03-28T01:13:08.139Z,112.63
2019-03-28T01:15:39.346Z,117.10
2019-03-28T01:18:10.546Z,93.30
2019-03-28T01:20:41.781Z,80.80
2019-03-28T01:23:12.975Z,100.07
2019-03-28T01:25:44.171Z,96.77
2019-03-28T01:28:16.139Z,95.03
2019-03-28T01:30:47.424Z,110.17
2019-03-28T01:33:18.691Z,100.43
2019-03-28T01:35:49.907Z,111.03
2019-03-28T01:38:21.104Z,112.53
2019-03-28T01:40:52.341Z,98.30
2019-03-28T01:43:23.457Z,113.80
2019-03-28T01:45:54.616Z,98.13
2019-03-28T01:48:25.809Z,95.73
2019-03-28T01:50:57.156Z,90.77
2019-03-28T01:53:28.392Z,85.00
2019-03-28T01:55:59.608Z,98.03
2019-03-28T01:58:30.795Z,87.03
2019-03-28T02:01:02.938Z,113.93
2019-03-28T02:03:34.310Z,95.80
2019-03-28T02:06:05.534Z,92.60
2019-03-28T02:08:36.653Z,96.33
2019-03-28T02:11:08.022Z,103.00
2019-03-28T02:13:39.214Z,111.70
2019-03-28T02:16:10.541Z,99.93
2019-03-28T02:18:41.786Z,102.13
2019-03-28T02:21:12.953Z,102.07
2019-03-28T02:23:44.197Z,111.37
2019-03-28T02:26:15.456Z,115.53
2019-03-28T02:28:46.652Z,105.57
2019-03-28T02:31:17.867Z,92.83
2019-03-28T02:33:49.166Z,91.37
2019-03-28T02:36:20.397Z,90.87
2019-03-28T02:38:51.739Z,92.87
2019-03-28T02:41:22.914Z,89.27
2019-03-28T02:43:54.233Z,107.33
2019-03-28T02:46:25.558Z,110.50
2019-03-28T02:48:56.934Z,100.87
2019-03-28T02:51:28.155Z,96.93
2019-03-28T02:53:59.455Z,92.67
2019-03-28T02:56:30.686Z,119.67
2019-03-28T02:59:02.816Z,109.77
2019-03-28T03:01:34.395Z,96.50
2019-03-28T03:04:05.873Z,105.73
2019-03-28T03:06:37.118Z,110.10
2019-03-28T03:09:10.467Z,94.87
2019-03-28T03:11:42.921Z,86.17
2019-03-28T03:14:14.508Z,84.83
2019-03-28T03:16:45.705Z,98.07
2019-03-28T03:19:17.372Z,102.23
2019-03-28T03:21:48.727Z,96.73
2019-03-28T03:24:20.054Z,96.40
2019-03-28T03:26:51.285Z,105.07
2019-03-28T03:29:22.606Z,103.83
2019-03-28T03:31:54.270Z,89.17
2019-03-28T03:34:26.028Z,92.90
2019-03-28T03:36:57.437Z,95.93
2019-03-28T03:39:28.831Z,97.00
2019-03-28T03:42:00.170Z,95.77
2019-03-28T03:44:31.455Z,105.53
2019-03-28T03:47:02.769Z,133.43
2019-03-28T03:49:34.090Z,111.23
2019-03-28T03:52:05.435Z,105.33
2019-03-28T03:54:36.621Z,98.57
2019-03-28T03:57:07.977Z,104.90
2019-03-28T03:59:39.333Z,97.87
2019-03-28T04:02:11.047Z,115.73
2019-03-28T04:04:42.576Z,107.83
2019-03-28T04:07:13.938Z,115.23
2019-03-28T04:09:45.189Z,109.23
2019-03-28T04:12:16.457Z,107.73
2019-03-28T04:14:47.802Z,108.37
2019-03-28T04:17:19.041Z,109.23
2019-03-28T04:19:50.344Z,131.90
2019-03-28T04:22:21.674Z,115.80
2019-03-28T04:24:53.564Z,101.97
2019-03-28T04:27:24.824Z,108.30
2019-03-28T04:29:56.699Z,103.57
2019-03-28T04:32:28.165Z,90.47
2019-03-28T04:34:59.648Z,129.07
2019-03-28T04:37:31.140Z,115.20
2019-03-28T04:40:02.466Z,93.70
2019-03-28T04:42:34.234Z,137.30
2019-03-28T04:45:05.675Z,120.93
2019-03-28T04:47:36.965Z,105.57
2019-03-28T04:50:08.710Z,98.60
2019-03-28T04:52:39.950Z,96.20
2019-03-28T04:55:11.736Z,111.73
2019-03-28T04:57:43.040Z,97.33
2019-03-28T05:00:15.396Z,110.37
2019-03-28T05:02:46.793Z,109.87
2019-03-28T05:05:18.091Z,99.67
2019-03-28T05:07:49.426Z,111.87
2019-03-28T05:10:20.662Z,115.07
2019-03-28T05:12:51.889Z,110.53
2019-03-28T05:15:23.117Z,104.17
2019-03-28T05:17:54.485Z,112.40
2019-03-28T05:20:25.719Z,94.87
2019-03-28T05:22:56.933Z,100.17
2019-03-28T05:25:28.179Z,90.60
2019-03-28T05:27:59.567Z,109.97
2019-03-28T05:30:30.703Z,114.00
2019-03-28T05:33:01.959Z,129.00
2019-03-28T05:35:33.155Z,129.30
2019-03-28T05:38:04.482Z,115.70
2019-03-28T05:40:36.481Z,124.23
2019-03-28T05:43:08.005Z,125.00
2019-03-28T05:45:39.272Z,122.40
2019-03-28T05:48:10.597Z,123.13
2019-03-28T05:50:41.884Z,128.07
2019-03-28T05:53:13.209Z,121.10
2019-03-28T05:55:44.454Z,122.30
2019-03-28T05:58:15.722Z,131.13
2019-03-28T06:00:51.081Z,131.27
2019-03-28T06:03:20.026Z,137.33
2019-03-28T06:05:52.233Z,130.40
2019-03-28T06:08:23.591Z,131.90
2019-03-28T06:10:54.885Z,159.50
2019-03-28T06:13:26.217Z,161.07
2019-03-28T06:15:57.408Z,133.50
2019-03-28T06:18:28.734Z,125.20
2019-03-28T06:21:00.091Z,135.13
2019-03-28T06:23:31.397Z,114.27
2019-03-28T06:26:02.653Z,113.47
2019-03-28T06:28:33.949Z,112.47
2019-03-28T06:31:05.166Z,118.47
2019-03-28T06:33:38.467Z,109.23
2019-03-28T06:36:09.410Z,120.50
2019-03-28T06:38:40.717Z,123.90
2019-03-28T06:41:11.931Z,116.03
2019-03-28T06:43:43.217Z,101.47
2019-03-28T06:46:14.454Z,97.03
2019-03-28T06:48:46.170Z,86.87
2019-03-28T06:51:17.587Z,81.93
2019-03-28T06:53:48.894Z,76.70
2019-03-28T06:56:25.346Z,76.63
2019-03-28T06:58:55.927Z,75.43
2019-03-28T07:01:27.164Z,73.23
2019-03-28T07:03:58.429Z,75.23
2019-03-28T07:06:29.686Z,73.40
2019-03-28T07:09:01.022Z,66.27
2019-03-28T07:11:32.279Z,66.03
2019-03-28T07:14:03.546Z,66.27
2019-03-28T07:16:34.838Z,71.27
2019-03-28T07:19:06.108Z,66.13
2019-03-28T07:21:37.404Z,67.73
2019-03-28T07:24:08.690Z,68.57
2019-03-28T07:26:39.917Z,66.07
2019-03-28T07:29:11.193Z,66.63
2019-03-28T07:31:42.439Z,68.23
2019-03-28T07:34:13.797Z,71.97
2019-03-28T07:36:45.083Z,67.07
2019-03-28T07:39:18.959Z,69.27
2019-03-28T07:41:49.245Z,69.47
2019-03-28T07:44:20.491Z,63.80
2019-03-28T07:46:52.058Z,67.70
2019-03-28T07:49:23.414Z,66.23
2019-03-28T07:51:54.640Z,65.07
2019-03-28T07:54:27.287Z,62.50
2019-03-28T07:56:58.574Z,62.83
2019-03-28T07:59:29.821Z,62.97
2019-03-28T08:02:03.448Z,63.13
2019-03-28T08:04:34.753Z,55.97
2019-03-28T08:07:06.079Z,59.00
2019-03-28T08:09:37.377Z,56.07
2019-03-28T08:12:21.959Z,55.43
2019-03-28T08:14:42.349Z,57.57
2019-03-28T08:17:13.644Z,52.80
2019-03-28T08:19:44.835Z,51.53
2019-03-28T08:22:16.009Z,51.70
2019-03-28T08:24:47.254Z,40.73
2019-03-28T08:27:18.460Z,38.47
2019-03-28T08:29:49.777Z,35.80
2019-03-28T08:32:24.065Z,32.40
2019-03-28T08:34:55.252Z,32.10
2019-03-28T08:37:26.819Z,25.13
2019-03-28T08:39:58.012Z,21.17
2019-03-28T08:42:29.120Z,22.20
2019-03-28T08:45:00.455Z,23.13
2019-03-28T08:47:31.705Z,26.27
2019-03-28T08:50:02.988Z,24.03
2019-03-28T08:52:34.235Z,30.43
2019-03-28T08:55:09.844Z,25.40
2019-03-28T08:57:39.289Z,23.10
2019-03-28T09:00:11.735Z,27.53
2019-03-28T09:02:42.985Z,26.50
2019-03-28T09:05:14.284Z,25.40
2019-03-28T09:07:45.544Z,26.13
2019-03-28T09:10:16.800Z,26.50
2019-03-28T09:12:48.107Z,22.20
2019-03-28T09:15:19.352Z,23.53
2019-03-28T09:17:50.612Z,23.43
2019-03-28T09:20:21.966Z,29.17
2019-03-28T09:22:53.151Z,18.57
2019-03-28T09:25:24.498Z,16.60
2019-03-28T09:27:55.704Z,17.87
2019-03-28T09:30:48.613Z,18.90
2019-03-28T09:33:14.369Z,19.98
2019-03-28T09:35:45.759Z,20.97
2019-03-28T09:38:17.123Z,23.73
2019-03-28T09:40:48.369Z,22.83
2019-03-28T09:43:19.638Z,22.80
2019-03-28T09:45:50.892Z,21.93
2019-03-28T09:48:22.238Z,25.10
2019-03-28T09:50:53.504Z,22.03
2019-03-28T09:53:24.741Z,24.63
2019-03-28T09:55:55.977Z,25.23
2019-03-28T09:58:27.294Z,25.50
2019-03-28T10:01:03.051Z,25.00
2019-03-28T10:03:31.549Z,24.03
2019-03-28T10:06:02.804Z,26.43
2019-03-28T10:08:34.079Z,32.17
2019-03-28T10:11:05.466Z,26.30
2019-03-28T10:13:36.701Z,22.83
2019-03-28T10:16:08.039Z,31.90
2019-03-28T10:18:39.324Z,27.17
2019-03-28T10:21:10.560Z,26.10
2019-03-28T10:23:41.788Z,27.43
2019-03-28T10:26:13.024Z,30.03
2019-03-28T10:28:44.209Z,24.27
2019-03-28T10:31:16.898Z,22.37
2019-03-28T10:33:48.913Z,26.83
2019-03-28T10:36:20.200Z,29.37
2019-03-28T10:38:51.474Z,25.93
2019-03-28T10:41:25.726Z,33.40
2019-03-28T10:43:55.669Z,27.43
2019-03-28T10:46:26.924Z,22.70
2019-03-28T10:48:58.177Z,22.07
2019-03-28T10:51:29.497Z,23.30
2019-03-28T10:54:00.742Z,17.10
2019-03-28T10:56:32.025Z,15.77
2019-03-28T10:59:03.238Z,20.77
2019-03-28T11:01:47.978Z,20.27
2019-03-28T11:04:07.378Z,17.67
2019-03-28T11:06:38.604Z,14.63
2019-03-28T11:09:09.830Z,22.40
2019-03-28T11:11:41.117Z,20.40
2019-03-28T11:14:12.453Z,17.83
2019-03-28T11:16:43.709Z,17.87
2019-03-28T11:19:16.016Z,17.70
2019-03-28T11:21:47.883Z,15.70
2019-03-28T11:24:19.151Z,17.37
2019-03-28T11:26:50.375Z,15.30
2019-03-28T11:29:21.601Z,14.23
2019-03-28T11:31:52.910Z,11.97
2019-03-28T11:34:24.073Z,14.37
2019-03-28T11:36:55.350Z,9.27
2019-03-28T11:39:26.668Z,9.90
2019-03-28T11:42:00.402Z,11.43
2019-03-28T11:44:31.060Z,13.47
2019-03-28T11:47:02.315Z,11.53
2019-03-28T11:49:33.513Z,14.30
2019-03-28T11:52:04.901Z,15.63
2019-03-28T11:54:36.204Z,10.33
2019-03-28T11:57:07.587Z,14.23
2019-03-28T11:59:38.867Z,13.23
2019-03-28T12:02:19.566Z,14.67
2019-03-28T12:04:43.080Z,13.83
2019-03-28T12:07:14.416Z,12.70
2019-03-28T12:09:45.663Z,15.77
2019-03-28T12:12:16.948Z,14.37
2019-03-28T12:14:48.296Z,15.07
2019-03-28T12:17:19.595Z,16.93
2019-03-28T12:19:50.880Z,14.23
2019-03-28T12:22:22.146Z,15.00
2019-03-28T12:24:53.360Z,15.80
2019-03-28T12:27:24.546Z,17.30
2019-03-28T12:29:55.732Z,16.53
2019-03-28T12:32:27.029Z,14.93
2019-03-28T12:34:58.305Z,11.67
2019-03-28T12:37:29.721Z,12.73
2019-03-28T12:40:00.958Z,11.63
2019-03-28T12:42:32.294Z,9.77
2019-03-28T12:45:03.782Z,13.17
2019-03-28T12:47:42.274Z,10.13
2019-03-28T12:50:09.454Z,9.67
2019-03-28T12:52:40.721Z,11.20
2019-03-28T12:55:12.368Z,13.93
2019-03-28T12:57:43.642Z,14.03
2019-03-28T13:00:15.432Z,15.97
2019-03-28T13:02:46.727Z,13.13
2019-03-28T13:05:17.901Z,14.53
2019-03-28T13:07:49.189Z,12.93
2019-03-28T13:10:20.946Z,14.83
2019-03-28T13:12:52.150Z,18.03
2019-03-28T13:15:23.477Z,16.60
2019-03-28T13:17:54.784Z,17.57
2019-03-28T13:20:26.079Z,15.77
2019-03-28T13:22:59.556Z,17.53
2019-03-28T13:25:30.762Z,15.70
2019-03-28T13:28:02.691Z,17.47
2019-03-28T13:30:34.925Z,14.97
2019-03-28T13:33:06.163Z,15.50
2019-03-28T13:35:37.418Z,15.20
2019-03-28T13:38:08.664Z,18.33
2019-03-28T13:40:39.881Z,17.60
2019-03-28T13:43:11.140Z,18.07
2019-03-28T13:45:42.523Z,15.63
2019-03-28T13:48:14.041Z,14.87
2019-03-28T13:50:45.416Z,18.33
2019-03-28T13:53:17.032Z,18.27
2019-03-28T13:55:48.280Z,20.80
2019-03-28T13:58:19.505Z,18.77
2019-03-28T14:00:50.781Z,18.53
2019-03-28T14:03:22.057Z,14.50
2019-03-28T14:05:53.314Z,17.13
2019-03-28T14:08:24.630Z,16.63
2019-03-28T14:10:55.906Z,15.40
2019-03-28T14:13:27.123Z,19.10
2019-03-28T14:15:58.451Z,13.87
2019-03-28T14:18:29.638Z,17.27
2019-03-28T14:21:00.921Z,16.70
2019-03-28T14:23:32.200Z,18.43
2019-03-28T14:26:03.567Z,16.23
2019-03-28T14:28:34.800Z,15.93
2019-03-28T14:31:06.176Z,15.17
2019-03-28T14:33:37.373Z,15.57
2019-03-28T14:36:08.841Z,17.90
2019-03-28T14:38:40.175Z,17.37
2019-03-28T14:41:11.422Z,16.97
2019-03-28T14:43:42.706Z,14.30
2019-03-28T14:46:14.035Z,12.37
2019-03-28T14:48:45.216Z,14.93
2019-03-28T14:51:16.534Z,15.33
2019-03-28T14:53:48.003Z,14.70
2019-03-28T14:56:19.404Z,15.43
2019-03-28T14:58:53.156Z,15.73
2019-03-28T15:01:26.722Z,14.80
2019-03-28T15:03:57.261Z,14.80
2019-03-28T15:06:28.506Z,13.33
2019-03-28T15:08:59.652Z,14.50
2019-03-28T15:11:31.030Z,17.03
2019-03-28T15:14:02.233Z,14.80
2019-03-28T15:16:33.502Z,15.73
2019-03-28T15:19:04.697Z,17.30
2019-03-28T15:21:36.019Z,19.00
2019-03-28T15:24:07.350Z,17.07
2019-03-28T15:26:38.770Z,16.43
2019-03-28T15:29:10.032Z,17.63
2019-03-28T15:31:41.298Z,22.53
2019-03-28T15:34:12.537Z,22.60
2019-03-28T15:36:43.818Z,16.43
2019-03-28T15:39:15.047Z,16.27
2019-03-28T15:41:46.273Z,14.63
2019-03-28T15:44:17.554Z,17.40
2019-03-28T15:46:48.896Z,17.50
2019-03-28T15:49:20.222Z,18.70
2019-03-28T15:51:51.491Z,17.33
2019-03-28T15:54:22.834Z,22.07
2019-03-28T15:56:54.043Z,19.40
2019-03-28T15:59:25.336Z,19.33
2019-03-28T16:01:59.968Z,21.43
2019-03-28T16:04:31.352Z,23.20
2019-03-28T16:07:02.567Z,20.40
2019-03-28T16:09:33.907Z,22.00
2019-03-28T16:12:05.290Z,19.37
2019-03-28T16:14:36.606Z,20.93
2019-03-28T16:17:07.852Z,20.13
2019-03-28T16:19:39.159Z,16.87
2019-03-28T16:22:11.604Z,17.33
2019-03-28T16:24:46.357Z,18.40
2019-03-28T16:27:16.119Z,19.73
2019-03-28T16:29:47.385Z,17.63
2019-03-28T16:32:18.624Z,14.73
2019-03-28T16:34:49.951Z,15.90
2019-03-28T16:37:21.266Z,15.57
2019-03-28T16:39:52.640Z,13.93
2019-03-28T16:42:23.947Z,14.37
2019-03-28T16:45:00.939Z,15.83
2019-03-28T16:47:32.191Z,13.60
2019-03-28T16:50:03.772Z,14.93
2019-03-28T16:52:34.952Z,15.27
2019-03-28T16:55:06.782Z,14.03
2019-03-28T16:57:38.026Z,16.13
2019-03-28T17:00:13.212Z,11.73
2019-03-28T17:02:44.500Z,12.57
2019-03-28T17:05:15.954Z,13.13
2019-03-28T17:07:47.522Z,22.63
2019-03-28T17:10:55.836Z,19.23
2019-03-28T17:13:27.053Z,13.70
2019-03-28T17:15:58.319Z,12.20
2019-03-28T17:18:30.463Z,13.33
2019-03-28T17:21:02.553Z,11.60
2019-03-28T17:23:33.738Z,9.87
2019-03-28T17:26:05.505Z,12.20
2019-03-28T17:28:36.816Z,10.27
2019-03-28T17:31:08.128Z,13.53
2019-03-28T17:33:39.433Z,14.17
2019-03-28T17:36:10.740Z,13.10
2019-03-28T17:38:41.956Z,9.40
2019-03-28T17:41:13.204Z,15.37
2019-03-28T17:43:44.519Z,9.10
2019-03-28T17:46:15.887Z,12.97
2019-03-28T17:48:52.364Z,11.77
2019-03-28T17:51:23.699Z,12.23
2019-03-28T17:53:56.250Z,10.57
2019-03-28T17:56:27.803Z,11.93
2019-03-28T17:58:59.118Z,12.57
2019-03-28T18:01:30.457Z,12.37
2019-03-28T18:04:01.751Z,11.57
2019-03-28T18:06:32.984Z,12.43
2019-03-28T18:09:05.784Z,12.10
2019-03-28T18:11:37.040Z,10.77
2019-03-28T18:14:08.265Z,12.57
2019-03-28T18:16:39.493Z,15.77
2019-03-28T18:19:10.739Z,10.03
2019-03-28T18:21:41.965Z,13.57
2019-03-28T18:24:13.282Z,17.23
2019-03-28T18:26:44.581Z,15.10
2019-03-28T18:29:19.000Z,12.97
2019-03-28T18:31:50.818Z,10.13
2019-03-28T18:34:21.612Z,10.17
2019-03-28T18:36:52.934Z,8.87
2019-03-28T18:39:24.253Z,14.27
2019-03-28T18:41:56.705Z,9.37
2019-03-28T18:44:29.733Z,13.97
2019-03-28T18:47:00.972Z,9.50
2019-03-28T18:49:32.336Z,10.23
2019-03-28T18:52:03.667Z,9.57
2019-03-28T18:54:36.530Z,8.00
2019-03-28T18:57:08.786Z,8.40
2019-03-28T18:59:39.932Z,9.43
2019-03-28T19:02:11.149Z,8.10
2019-03-28T19:04:42.457Z,8.77
2019-03-28T19:07:13.721Z,11.33
2019-03-28T19:09:45.277Z,11.77
2019-03-28T19:12:17.245Z,9.00
2019-03-28T19:14:48.443Z,10.43
2019-03-28T19:17:19.750Z,13.23
2019-03-28T19:19:50.991Z,8.83
2019-03-28T19:22:22.219Z,10.53
2019-03-28T19:24:53.475Z,9.90
2019-03-28T19:27:24.791Z,11.23
2019-03-28T19:29:56.088Z,10.43
2019-03-28T19:32:29.720Z,11.30
2019-03-28T19:35:03.060Z,16.73
2019-03-28T19:37:33.188Z,12.30
2019-03-28T19:40:06.956Z,11.20
2019-03-28T19:42:37.792Z,13.67
2019-03-28T19:45:09.618Z,11.57
2019-03-28T19:47:40.933Z,10.90
2019-03-28T19:50:16.241Z,14.00
2019-03-28T19:52:47.579Z,11.27
2019-03-28T19:55:23.775Z,14.00
2019-03-28T19:57:55.091Z,15.47
2019-03-28T20:00:26.397Z,19.60
2019-03-28T20:03:00.238Z,14.83
2019-03-28T20:05:30.660Z,17.07
2019-03-28T20:08:14.955Z,11.87
2019-03-28T20:10:34.873Z,15.13
2019-03-28T20:13:06.080Z,11.03
2019-03-28T20:15:37.246Z,9.60
2019-03-28T20:18:09.813Z,12.33
2019-03-28T20:20:41.250Z,10.13
2019-03-28T20:23:12.456Z,15.63
2019-03-28T20:25:43.682Z,9.47
2019-03-28T20:28:15.676Z,11.03
2019-03-28T20:30:47.524Z,14.27
2019-03-28T20:33:18.863Z,11.90
2019-03-28T20:36:02.243Z,13.23
2019-03-28T20:38:23.075Z,12.67
2019-03-28T20:40:54.345Z,12.17
2019-03-28T20:43:26.262Z,14.60
2019-03-28T20:45:58.164Z,12.77
2019-03-28T20:48:29.531Z,14.03
2019-03-28T20:51:03.333Z,14.57
2019-03-28T20:53:33.748Z,13.40
2019-03-28T20:56:05.221Z,15.30
2019-03-28T20:58:36.528Z,15.73
2019-03-28T21:01:07.743Z,15.63
2019-03-28T21:03:39.410Z,16.63
2019-03-28T21:06:15.433Z,17.70
2019-03-28T21:08:43.489Z,14.00
2019-03-28T21:11:14.710Z,12.93
2019-03-28T21:13:45.976Z,15.47
2019-03-28T21:16:17.282Z,14.27
2019-03-28T21:18:48.640Z,17.10
2019-03-28T21:21:19.905Z,15.63
2019-03-28T21:23:51.242Z,15.27
2019-03-28T21:26:22.548Z,14.60
2019-03-28T21:28:53.774Z,13.87
2019-03-28T21:31:24.989Z,13.97
2019-03-28T21:33:56.377Z,17.57
2019-03-28T21:36:30.170Z,21.83
2019-03-28T21:39:00.420Z,15.50
2019-03-28T21:41:31.726Z,16.00
2019-03-28T21:44:03.032Z,14.23
2019-03-28T21:46:34.299Z,16.70
2019-03-28T21:49:05.607Z,17.77
2019-03-28T21:51:36.921Z,13.53
2019-03-28T21:54:08.198Z,15.67
2019-03-28T21:56:41.439Z,18.73
2019-03-28T21:59:12.332Z,14.73
2019-03-28T22:01:43.537Z,20.23
2019-03-28T22:04:14.704Z,19.90
2019-03-28T22:06:45.920Z,20.40
2019-03-28T22:09:17.117Z,16.17
2019-03-28T22:11:48.363Z,14.07
2019-03-28T22:14:19.529Z,17.60
2019-03-28T22:16:51.658Z,20.33
2019-03-28T22:19:22.812Z,20.63
2019-03-28T22:21:53.919Z,18.13
2019-03-28T22:24:25.106Z,19.20
2019-03-28T22:26:56.288Z,15.77
2019-03-28T22:29:27.398Z,24.43
2019-03-28T22:31:58.545Z,20.63
2019-03-28T22:34:29.671Z,17.93
2019-03-28T22:37:03.482Z,22.10
2019-03-28T22:39:33.716Z,15.07
2019-03-28T22:42:04.950Z,23.07
2019-03-28T22:44:36.106Z,13.80
2019-03-28T22:47:07.223Z,24.20
2019-03-28T22:49:38.399Z,18.43
2019-03-28T22:52:09.596Z,19.90
2019-03-28T22:54:40.832Z,19.13
2019-03-28T22:57:12.148Z,18.00
2019-03-28T22:59:43.256Z,20.67
2019-03-28T23:02:14.481Z,20.30
2019-03-28T23:04:45.628Z,18.33
2019-03-28T23:07:16.856Z,22.70
2019-03-28T23:09:48.040Z,21.23
2019-03-28T23:12:19.338Z,20.13
2019-03-28T23:14:50.553Z,20.43
2019-03-28T23:17:21.973Z,20.57
2019-03-28T23:19:53.247Z,21.67
2019-03-28T23:22:24.452Z,20.37
2019-03-28T23:24:55.592Z,24.97
2019-03-28T23:27:27.007Z,23.40
2019-03-28T23:29:58.373Z,26.43
2019-03-28T23:32:29.591Z,21.57
2019-03-28T23:35:00.785Z,23.23
2019-03-28T23:37:31.940Z,21.23
2019-03-28T23:40:03.167Z,22.90
2019-03-28T23:42:35.113Z,21.47
2019-03-28T23:45:06.670Z,19.93
2019-03-28T23:47:37.904Z,20.93
2019-03-28T23:50:09.073Z,26.13
2019-03-28T23:52:40.310Z,23.27
2019-03-28T23:55:11.468Z,28.90
2019-03-28T23:57:42.711Z,26.63
